createdAt,value
2023-01-28T00:00:38.239Z,10.45
2023-01-28T00:03:04.953Z,11.93
2023-01-28T00:05:31.833Z,11.65
2023-01-28T00:07:58.546Z,12.50
2023-01-28T00:10:25.319Z,12.35
2023-01-28T00:12:52.082Z,12.63
2023-01-28T00:15:18.825Z,11.52
2023-01-28T00:17:45.781Z,12.05
2023-01-28T00:20:12.775Z,12.88
2023-01-28T00:22:39.545Z,13.68
2023-01-28T00:25:06.768Z,12.55
2023-01-28T00:27:33.567Z,12.93
2023-01-28T00:30:00.297Z,12.35
2023-01-28T00:32:27.016Z,13.55
2023-01-28T00:34:53.730Z,11.57
2023-01-28T00:37:20.467Z,11.80
2023-01-28T00:39:47.178Z,11.95
2023-01-28T00:42:13.921Z,11.23
2023-01-28T00:44:40.708Z,11.02
2023-01-28T00:47:07.567Z,13.05
2023-01-28T00:49:34.247Z,12.50
2023-01-28T00:52:00.999Z,11.70
2023-01-28T00:54:27.760Z,11.95
2023-01-28T00:56:54.474Z,13.57
2023-01-28T00:59:21.215Z,12.88
2023-01-28T01:01:48.076Z,10.90
2023-01-28T01:04:14.871Z,11.23
2023-01-28T01:06:41.648Z,12.25
2023-01-28T01:09:10.341Z,11.98
2023-01-28T01:11:37.256Z,11.73
2023-01-28T01:14:04.118Z,12.32
2023-01-28T01:16:31.320Z,11.60
2023-01-28T01:18:58.178Z,11.80
2023-01-28T01:21:26.317Z,14.23
2023-01-28T01:23:53.217Z,12.63
2023-01-28T01:26:20.202Z,11.38
2023-01-28T01:28:46.959Z,11.35
2023-01-28T01:31:15.852Z,13.10
2023-01-28T01:33:43.353Z,12.85
2023-01-28T01:36:10.661Z,12.82
2023-01-28T01:38:37.418Z,13.93
2023-01-28T01:41:04.720Z,12.13
2023-01-28T01:43:52.502Z,12.00
2023-01-28T01:46:33.773Z,15.48
2023-01-28T01:49:06.650Z,12.68
2023-01-28T01:51:33.453Z,11.68
2023-01-28T01:54:00.124Z,11.88
2023-01-28T01:56:30.112Z,13.05
2023-01-28T02:01:24.884Z,14.50
2023-01-28T02:04:19.271Z,12.70
2023-01-28T02:06:46.073Z,12.32
2023-01-28T02:09:28.924Z,13.82
2023-01-28T02:11:56.608Z,12.70
2023-01-28T02:14:30.857Z,14.27
2023-01-28T02:16:58.963Z,13.32
2023-01-28T02:19:27.535Z,12.60
2023-01-28T02:22:17.967Z,12.18
2023-01-28T02:25:19.353Z,12.07
2023-01-28T02:28:05.917Z,13.20
2023-01-28T02:30:35.518Z,13.02
2023-01-28T02:33:18.316Z,15.10
2023-01-28T02:35:49.010Z,17.67
2023-01-28T02:38:18.775Z,12.02
2023-01-28T02:40:48.343Z,15.25
2023-01-28T02:43:15.184Z,15.32
2023-01-28T02:45:41.799Z,19.02
2023-01-28T02:48:08.472Z,15.57
2023-01-28T02:50:40.858Z,14.57
2023-01-28T02:53:18.738Z,16.23
2023-01-28T02:56:00.525Z,14.70
2023-01-28T02:58:47.395Z,18.80
2023-01-28T03:01:35.799Z,15.88
2023-01-28T03:04:16.982Z,15.70
2023-01-28T03:06:49.199Z,15.93
2023-01-28T03:09:15.823Z,15.27
2023-01-28T03:11:43.688Z,17.00
2023-01-28T03:14:10.713Z,18.10
2023-01-28T03:16:37.477Z,16.98
2023-01-28T03:19:04.122Z,17.10
2023-01-28T03:21:36.725Z,16.35
2023-01-28T03:24:21.993Z,16.65
2023-01-28T03:26:56.484Z,17.40
2023-01-28T03:29:23.106Z,14.98
2023-01-28T03:31:49.809Z,15.50
2023-01-28T03:34:16.506Z,17.35
2023-01-28T03:36:43.324Z,15.13
2023-01-28T03:39:09.995Z,14.90
2023-01-28T03:41:36.740Z,14.60
2023-01-28T03:44:03.429Z,13.00
2023-01-28T03:46:30.141Z,14.18
2023-01-28T03:48:56.876Z,13.75
2023-01-28T03:51:23.496Z,15.15
2023-01-28T03:53:50.142Z,14.88
2023-01-28T03:56:16.833Z,14.15
2023-01-28T03:58:43.519Z,13.30
2023-01-28T04:01:10.183Z,15.82
2023-01-28T04:03:36.894Z,13.77
2023-01-28T04:06:05.493Z,13.98
2023-01-28T04:08:32.187Z,16.00
2023-01-28T04:10:59.119Z,14.23
2023-01-28T04:13:25.892Z,12.90
2023-01-28T04:15:52.550Z,15.68
2023-01-28T04:18:19.187Z,15.57
2023-01-28T04:20:45.852Z,15.20
2023-01-28T04:23:12.520Z,16.48
2023-01-28T04:25:39.214Z,16.95
2023-01-28T04:28:05.835Z,16.63
2023-01-28T04:30:32.480Z,16.10
2023-01-28T04:32:59.258Z,16.10
2023-01-28T04:35:25.955Z,15.93
2023-01-28T04:37:52.621Z,18.48
2023-01-28T04:40:19.367Z,17.75
2023-01-28T04:42:53.561Z,16.05
2023-01-28T04:45:20.322Z,16.63
2023-01-28T04:47:46.949Z,17.85
2023-01-28T04:50:13.705Z,17.52
2023-01-28T04:52:40.342Z,16.00
2023-01-28T04:55:07.591Z,16.80
2023-01-28T04:57:34.280Z,15.50
2023-01-28T05:00:00.903Z,18.48
2023-01-28T05:02:27.593Z,16.52
2023-01-28T05:04:54.291Z,17.13
2023-01-28T05:07:20.947Z,16.83
2023-01-28T05:09:47.642Z,15.45
2023-01-28T05:12:14.439Z,15.50
2023-01-28T05:14:41.105Z,17.88
2023-01-28T05:17:10.557Z,18.20
2023-01-28T05:19:37.280Z,15.98
2023-01-28T05:22:03.946Z,16.15
2023-01-28T05:24:30.853Z,16.38
2023-01-28T05:26:57.573Z,16.35
2023-01-28T05:29:24.248Z,18.42
2023-01-28T05:31:50.864Z,17.48
2023-01-28T05:34:17.493Z,18.65
2023-01-28T05:36:44.124Z,17.75
2023-01-28T05:39:10.784Z,20.27
2023-01-28T05:41:37.623Z,19.67
2023-01-28T05:44:04.445Z,22.67
2023-01-28T05:46:32.767Z,22.45
2023-01-28T05:48:59.506Z,18.90
2023-01-28T05:51:33.499Z,19.25
2023-01-28T05:54:21.015Z,18.10
2023-01-28T05:57:00.653Z,19.15
2023-01-28T05:59:40.185Z,17.95
2023-01-28T06:02:12.525Z,17.27
2023-01-28T06:04:40.947Z,18.55
2023-01-28T06:07:09.961Z,17.88
2023-01-28T06:12:41.490Z,20.33
2023-01-28T06:15:27.139Z,17.67
2023-01-28T06:18:08.862Z,16.67
2023-01-28T06:20:35.682Z,18.88
2023-01-28T06:23:02.492Z,21.10
2023-01-28T06:25:32.171Z,17.70
2023-01-28T06:27:58.801Z,18.60
2023-01-28T06:30:25.449Z,15.70
2023-01-28T06:32:55.673Z,18.42
2023-01-28T06:35:22.528Z,18.95
2023-01-28T06:37:49.161Z,20.30
2023-01-28T06:40:16.320Z,18.08
2023-01-28T06:42:43.113Z,18.50
2023-01-28T06:45:10.115Z,16.85
2023-01-28T06:47:38.937Z,23.38
2023-01-28T06:50:06.185Z,19.33
2023-01-28T06:52:32.891Z,18.48
2023-01-28T06:54:59.588Z,18.58
2023-01-28T06:57:26.558Z,22.58
2023-01-28T06:59:53.263Z,19.67
2023-01-28T07:02:22.403Z,21.02
2023-01-28T07:04:49.151Z,22.52
2023-01-28T07:07:15.787Z,19.30
2023-01-28T07:09:42.560Z,20.50
2023-01-28T07:12:09.273Z,16.25
2023-01-28T07:14:35.906Z,17.48
2023-01-28T07:17:02.594Z,16.27
2023-01-28T07:19:29.362Z,16.85
2023-01-28T07:21:58.924Z,17.25
2023-01-28T07:24:33.306Z,21.33
2023-01-28T07:27:21.832Z,17.92
2023-01-28T07:29:48.495Z,21.02
2023-01-28T07:32:15.233Z,20.15
2023-01-28T07:34:50.193Z,17.98
2023-01-28T07:37:16.932Z,18.38
2023-01-28T07:39:46.692Z,19.50
2023-01-28T07:42:19.881Z,17.92
2023-01-28T07:44:49.512Z,17.02
2023-01-28T07:47:17.694Z,16.40
2023-01-28T07:49:48.648Z,19.10
2023-01-28T07:52:23.176Z,19.88
2023-01-28T07:55:04.195Z,19.73
2023-01-28T07:57:30.853Z,17.75
2023-01-28T07:59:58.948Z,18.85
2023-01-28T08:02:25.610Z,15.45
2023-01-28T08:04:52.432Z,17.17
2023-01-28T08:07:24.611Z,19.75
2023-01-28T08:09:54.268Z,15.75
2023-01-28T08:12:21.170Z,17.23
2023-01-28T08:14:48.226Z,17.27
2023-01-28T08:17:17.278Z,17.90
2023-01-28T08:19:44.306Z,16.23
2023-01-28T08:22:11.315Z,14.73
2023-01-28T08:24:38.419Z,15.32
2023-01-28T08:27:05.576Z,13.10
2023-01-28T08:29:33.275Z,14.65
2023-01-28T08:32:02.822Z,14.02
2023-01-28T08:34:29.751Z,16.58
2023-01-28T08:36:56.917Z,15.98
2023-01-28T08:39:24.410Z,11.77
2023-01-28T08:41:51.162Z,13.68
2023-01-28T08:44:18.468Z,11.00
2023-01-28T08:46:47.740Z,12.65
2023-01-28T08:49:14.422Z,12.13
2023-01-28T08:51:41.086Z,13.60
2023-01-28T08:54:07.737Z,10.65
2023-01-28T08:56:34.483Z,10.45
2023-01-28T08:59:01.271Z,12.82
2023-01-28T09:01:27.998Z,10.77
2023-01-28T09:03:54.795Z,12.02
2023-01-28T09:06:21.802Z,11.93
2023-01-28T09:08:53.847Z,12.18
2023-01-28T09:11:22.140Z,10.98
2023-01-28T09:13:48.790Z,12.85
2023-01-28T09:16:17.918Z,11.82
2023-01-28T09:18:44.578Z,9.88
2023-01-28T09:21:11.361Z,11.02
2023-01-28T09:23:38.306Z,9.15
2023-01-28T09:26:05.610Z,10.82
2023-01-28T09:28:33.199Z,14.20
2023-01-28T09:31:04.260Z,11.18
2023-01-28T09:33:32.313Z,11.90
2023-01-28T09:36:03.105Z,13.90
2023-01-28T09:38:30.421Z,11.35
2023-01-28T09:40:57.113Z,9.82
2023-01-28T09:43:37.443Z,12.07
2023-01-28T09:46:05.316Z,11.13
2023-01-28T09:48:41.712Z,11.88
2023-01-28T09:51:20.255Z,10.25
2023-01-28T09:53:50.062Z,10.57
2023-01-28T09:56:22.773Z,12.02
2023-01-28T09:58:49.393Z,10.27
2023-01-28T10:01:36.068Z,12.60
2023-01-28T10:04:24.834Z,16.77
2023-01-28T10:07:10.529Z,10.43
2023-01-28T10:10:06.885Z,10.82
2023-01-28T10:12:49.424Z,11.88
2023-01-28T10:15:54.852Z,11.73
2023-01-28T10:18:35.124Z,13.82
2023-01-28T10:21:19.962Z,11.05
2023-01-28T10:23:54.438Z,13.68
2023-01-28T10:26:26.075Z,10.18
2023-01-28T10:28:58.268Z,10.55
2023-01-28T10:31:34.604Z,10.75
2023-01-28T10:34:01.358Z,10.75
2023-01-28T10:36:27.961Z,10.63
2023-01-28T10:38:54.604Z,11.95
2023-01-28T10:41:21.983Z,11.20
2023-01-28T10:43:49.141Z,11.52
2023-01-28T10:46:37.983Z,9.98
2023-01-28T10:49:13.430Z,8.52
2023-01-28T10:51:41.414Z,10.00
2023-01-28T10:54:34.166Z,9.90
2023-01-28T10:57:02.276Z,10.18
2023-01-28T10:59:30.382Z,11.07
2023-01-28T11:01:59.560Z,7.82
2023-01-28T11:04:28.021Z,9.30
2023-01-28T11:07:14.485Z,8.60
2023-01-28T11:09:47.999Z,8.32
2023-01-28T11:12:28.892Z,7.90
2023-01-28T11:15:04.851Z,8.38
2023-01-28T11:17:33.865Z,7.47
2023-01-28T11:20:17.865Z,9.30
2023-01-28T11:22:44.632Z,8.15
2023-01-28T11:25:23.005Z,6.53
2023-01-28T11:27:50.088Z,7.18
2023-01-28T11:30:22.288Z,7.03
2023-01-28T11:33:15.921Z,7.68
2023-01-28T11:35:42.579Z,7.28
2023-01-28T11:38:19.933Z,7.25
2023-01-28T11:40:53.290Z,7.70
2023-01-28T11:43:21.937Z,6.78
2023-01-28T11:46:05.417Z,6.75
2023-01-28T11:48:57.272Z,8.23
2023-01-28T11:51:36.788Z,8.43
2023-01-28T11:54:33.642Z,5.95
2023-01-28T11:57:09.447Z,6.88
2023-01-28T11:59:56.709Z,6.18
2023-01-28T12:03:02.242Z,6.65
2023-01-28T12:05:39.529Z,7.03
2023-01-28T12:08:27.140Z,8.10
2023-01-28T12:11:20.836Z,6.10
2023-01-28T12:14:20.677Z,8.73
2023-01-28T12:16:58.995Z,7.72
2023-01-28T12:20:03.433Z,8.38
2023-01-28T12:22:47.892Z,6.38
2023-01-28T12:25:25.506Z,6.93
2023-01-28T12:27:55.997Z,7.55
2023-01-28T12:30:36.872Z,7.15
2023-01-28T12:33:40.932Z,7.88
2023-01-28T12:36:10.376Z,8.20
2023-01-28T12:39:01.845Z,7.20
2023-01-28T12:41:31.339Z,6.88
2023-01-28T12:44:08.615Z,8.38
2023-01-28T12:46:35.394Z,7.18
2023-01-28T12:49:55.969Z,7.55
2023-01-28T12:52:24.419Z,10.27
2023-01-28T12:54:54.530Z,10.90
2023-01-28T12:57:31.905Z,7.45
2023-01-28T13:00:32.618Z,8.45
2023-01-28T13:03:08.183Z,8.32
2023-01-28T13:05:38.605Z,8.52
2023-01-28T13:08:10.899Z,8.23
2023-01-28T13:10:42.447Z,9.00
2023-01-28T13:13:15.950Z,8.10
2023-01-28T13:15:42.883Z,9.15
2023-01-28T13:18:33.175Z,9.52
2023-01-28T13:21:01.001Z,9.35
2023-01-28T13:23:47.710Z,10.18
2023-01-28T13:26:20.580Z,9.40
2023-01-28T13:28:51.841Z,9.52
2023-01-28T13:31:20.190Z,9.13
2023-01-28T13:33:48.340Z,9.27
2023-01-28T13:36:18.106Z,10.50
2023-01-28T13:38:45.449Z,8.35
2023-01-28T13:41:13.285Z,9.05
2023-01-28T13:43:41.280Z,8.60
2023-01-28T13:46:09.122Z,9.90
2023-01-28T13:48:46.206Z,8.27
2023-01-28T13:51:32.958Z,7.75
2023-01-28T13:54:19.020Z,7.20
2023-01-28T13:57:01.215Z,8.55
2023-01-28T13:59:33.717Z,9.45
2023-01-28T14:02:06.258Z,9.13
2023-01-28T14:04:47.803Z,9.77
2023-01-28T14:07:48.892Z,9.40
2023-01-28T14:10:24.322Z,9.25
2023-01-28T14:13:34.755Z,8.43
2023-01-28T14:16:28.328Z,9.40
2023-01-28T14:18:55.779Z,9.68
2023-01-28T14:21:22.513Z,9.15
2023-01-28T14:23:53.199Z,9.68
2023-01-28T14:26:27.659Z,10.48
2023-01-28T14:29:01.900Z,8.85
2023-01-28T14:31:31.870Z,10.45
2023-01-28T14:34:05.188Z,11.20
2023-01-28T14:36:32.021Z,8.85
2023-01-28T14:38:59.224Z,10.75
2023-01-28T14:41:26.937Z,11.00
2023-01-28T14:43:55.799Z,10.10
2023-01-28T14:46:25.600Z,13.57
2023-01-28T14:51:41.044Z,13.63
2023-01-28T14:54:29.639Z,10.82
2023-01-28T14:56:59.089Z,10.60
2023-01-28T14:59:39.348Z,9.40
2023-01-28T15:02:42.687Z,10.52
2023-01-28T15:05:11.382Z,10.50
2023-01-28T15:07:38.088Z,11.10
2023-01-28T15:10:07.214Z,10.50
2023-01-28T15:12:38.457Z,10.80
2023-01-28T15:15:31.863Z,12.43
2023-01-28T15:18:02.157Z,12.00
2023-01-28T15:20:29.023Z,12.68
2023-01-28T15:22:57.178Z,13.15
2023-01-28T15:25:26.541Z,15.95
2023-01-28T15:27:53.742Z,11.15
2023-01-28T15:30:23.662Z,13.30
2023-01-28T15:33:00.115Z,15.45
2023-01-28T15:35:29.484Z,12.90
2023-01-28T15:37:56.600Z,13.43
2023-01-28T15:40:23.687Z,14.27
2023-01-28T15:42:50.550Z,13.90
2023-01-28T15:45:21.483Z,11.13
2023-01-28T15:47:48.767Z,13.07
2023-01-28T15:50:25.232Z,14.18
2023-01-28T15:52:52.415Z,12.02
2023-01-28T15:55:36.947Z,15.82
2023-01-28T15:58:30.642Z,13.93
2023-01-28T16:01:04.756Z,13.93
2023-01-28T16:03:31.502Z,14.55
2023-01-28T16:06:03.042Z,13.20
2023-01-28T16:08:52.828Z,13.57
2023-01-28T16:11:29.711Z,11.52
2023-01-28T16:13:56.406Z,12.75
2023-01-28T16:16:31.408Z,14.48
2023-01-28T16:18:58.443Z,14.95
2023-01-28T16:21:29.236Z,17.58
2023-01-28T16:24:04.001Z,12.80
2023-01-28T16:26:32.062Z,18.45
2023-01-28T16:29:00.859Z,14.05
2023-01-28T16:31:27.714Z,13.80
2023-01-28T16:33:54.540Z,15.27
2023-01-28T16:36:21.382Z,15.90
2023-01-28T16:38:48.178Z,13.48
2023-01-28T16:41:23.190Z,15.77
2023-01-28T16:43:49.871Z,15.10
2023-01-28T16:46:16.562Z,15.13
2023-01-28T16:48:43.260Z,15.88
2023-01-28T16:51:19.294Z,17.48
2023-01-28T16:56:44.388Z,18.75
2023-01-28T16:59:11.017Z,17.13
2023-01-28T17:01:37.725Z,26.00
2023-01-28T17:04:04.576Z,18.40
2023-01-28T17:06:31.346Z,16.15
2023-01-28T17:08:58.052Z,17.20
2023-01-28T17:11:28.269Z,18.00
2023-01-28T17:13:54.938Z,21.30
2023-01-28T17:16:21.693Z,16.85
2023-01-28T17:18:52.198Z,17.13
2023-01-28T17:21:18.909Z,18.60
2023-01-28T17:23:45.527Z,18.42
2023-01-28T17:26:13.625Z,18.73
2023-01-28T17:28:40.414Z,23.27
2023-01-28T17:31:08.280Z,18.40
2023-01-28T17:33:34.954Z,17.63
2023-01-28T17:36:01.992Z,20.70
2023-01-28T17:38:28.668Z,24.95
2023-01-28T17:41:01.066Z,26.38
2023-01-28T17:43:30.867Z,21.52
2023-01-28T17:46:00.942Z,26.58
2023-01-28T17:48:27.566Z,23.77
2023-01-28T17:50:57.327Z,24.35
2023-01-28T17:53:24.319Z,23.98
2023-01-28T17:55:50.931Z,24.65
2023-01-28T17:58:17.584Z,20.10
2023-01-28T18:00:44.323Z,21.90
2023-01-28T18:03:14.564Z,23.80
2023-01-28T18:05:41.402Z,21.83
2023-01-28T18:08:08.377Z,20.73
2023-01-28T18:10:35.190Z,23.27
2023-01-28T18:13:02.171Z,23.15
2023-01-28T18:15:28.811Z,22.80
2023-01-28T18:17:55.431Z,25.75
2023-01-28T18:20:22.108Z,26.80
2023-01-28T18:22:48.873Z,30.27
2023-01-28T18:25:16.804Z,33.60
2023-01-28T18:27:44.257Z,33.28
2023-01-28T18:30:11.521Z,37.53
2023-01-28T18:32:38.140Z,37.85
2023-01-28T18:35:05.330Z,36.08
2023-01-28T18:37:32.104Z,32.63
2023-01-28T18:39:58.803Z,36.72
2023-01-28T18:42:25.685Z,36.95
2023-01-28T18:44:52.409Z,31.38
2023-01-28T18:47:19.144Z,30.15
2023-01-28T18:49:45.772Z,29.17
2023-01-28T18:52:12.485Z,28.33
2023-01-28T18:54:39.115Z,30.20
2023-01-28T18:57:06.047Z,31.65
2023-01-28T18:59:32.894Z,26.95
2023-01-28T19:01:59.671Z,27.85
2023-01-28T19:04:26.419Z,27.27
2023-01-28T19:06:56.115Z,24.17
2023-01-28T19:09:22.784Z,24.13
2023-01-28T19:11:49.374Z,26.42
2023-01-28T19:14:16.234Z,26.20
2023-01-28T19:16:43.571Z,26.90
2023-01-28T19:19:10.299Z,24.17
2023-01-28T19:21:37.055Z,25.45
2023-01-28T19:24:05.664Z,24.42
2023-01-28T19:26:32.607Z,27.92
2023-01-28T19:28:59.453Z,22.83
2023-01-28T19:31:26.583Z,25.20
2023-01-28T19:33:57.853Z,24.60
2023-01-28T19:36:25.597Z,22.48
2023-01-28T19:38:55.693Z,24.80
2023-01-28T19:41:22.681Z,23.25
2023-01-28T19:43:49.460Z,21.90
2023-01-28T19:46:16.496Z,22.77
2023-01-28T19:48:43.646Z,19.58
2023-01-28T19:51:10.618Z,19.83
2023-01-28T19:53:37.922Z,23.20
2023-01-28T19:56:06.399Z,20.25
2023-01-28T19:58:34.247Z,22.30
2023-01-28T20:01:06.623Z,21.42
2023-01-28T20:03:33.410Z,19.02
2023-01-28T20:06:01.591Z,23.10
2023-01-28T20:08:29.698Z,22.13
2023-01-28T20:11:25.645Z,19.80
2023-01-28T20:13:52.688Z,22.50
2023-01-28T20:16:23.837Z,21.42
2023-01-28T20:18:50.933Z,20.77
2023-01-28T20:21:17.740Z,24.73
2023-01-28T20:23:44.971Z,20.25
2023-01-28T20:26:11.654Z,22.73
2023-01-28T20:28:38.296Z,21.70
2023-01-28T20:31:06.258Z,23.35
2023-01-28T20:33:33.241Z,26.08
2023-01-28T20:36:10.937Z,23.00
2023-01-28T20:38:38.529Z,24.80
2023-01-28T20:41:09.027Z,23.70
2023-01-28T20:43:36.394Z,25.23
2023-01-28T20:46:07.285Z,26.30
2023-01-28T20:48:34.122Z,24.63
2023-01-28T20:51:11.548Z,22.67
2023-01-28T20:53:38.260Z,23.40
2023-01-28T20:56:05.431Z,25.77
2023-01-28T20:58:32.586Z,24.05
2023-01-28T21:00:59.508Z,23.92
2023-01-28T21:03:26.743Z,24.25
2023-01-28T21:05:54.043Z,25.30
2023-01-28T21:08:21.058Z,22.52
2023-01-28T21:10:48.337Z,22.42
2023-01-28T21:13:15.660Z,22.38
2023-01-28T21:15:52.036Z,24.40
2023-01-28T21:18:19.255Z,21.30
2023-01-28T21:20:46.256Z,22.58
2023-01-28T21:23:13.154Z,24.23
2023-01-28T21:25:40.553Z,24.67
2023-01-28T21:28:08.916Z,23.88
2023-01-28T21:30:35.624Z,24.75
2023-01-28T21:33:02.326Z,31.77
2023-01-28T21:35:28.957Z,28.75
2023-01-28T21:37:55.733Z,31.10
2023-01-28T21:40:22.430Z,29.85
2023-01-28T21:42:49.721Z,31.42
2023-01-28T21:45:17.606Z,31.35
2023-01-28T21:47:44.240Z,33.25
2023-01-28T21:50:11.054Z,30.90
2023-01-28T21:52:37.837Z,33.30
2023-01-28T21:55:04.902Z,35.58
2023-01-28T21:57:31.608Z,32.50
2023-01-28T21:59:58.227Z,36.13
2023-01-28T22:02:24.991Z,36.33
2023-01-28T22:04:51.834Z,39.05
2023-01-28T22:07:18.865Z,33.80
2023-01-28T22:09:45.844Z,37.13
2023-01-28T22:12:13.174Z,32.05
2023-01-28T22:14:39.879Z,32.90
2023-01-28T22:17:06.661Z,33.67
2023-01-28T22:19:33.607Z,30.50
2023-01-28T22:22:00.380Z,30.20
2023-01-28T22:24:27.051Z,29.23
2023-01-28T22:26:54.021Z,31.40
2023-01-28T22:29:21.276Z,30.23
2023-01-28T22:31:48.891Z,31.25
2023-01-28T22:34:15.992Z,30.35
2023-01-28T22:36:42.636Z,34.58
2023-01-28T22:39:12.522Z,32.42
2023-01-28T22:41:39.342Z,28.30
2023-01-28T22:44:06.003Z,32.45
2023-01-28T22:46:33.507Z,30.30
2023-01-28T22:49:00.377Z,32.70
2023-01-28T22:51:31.020Z,34.05
2023-01-28T22:53:57.696Z,32.60
2023-01-28T22:56:25.744Z,33.33
2023-01-28T22:58:56.432Z,36.13
2023-01-28T23:01:23.278Z,35.40
2023-01-28T23:03:50.466Z,31.10
2023-01-28T23:06:18.338Z,32.10
2023-01-28T23:08:45.190Z,31.33
2023-01-28T23:11:11.885Z,38.47
2023-01-28T23:13:38.481Z,29.58
2023-01-28T23:16:05.560Z,33.42
2023-01-28T23:18:32.379Z,31.15
2023-01-28T23:20:59.033Z,33.10
2023-01-28T23:23:25.690Z,28.48
2023-01-28T23:25:52.319Z,29.17
2023-01-28T23:28:18.960Z,29.15
2023-01-28T23:30:45.636Z,25.85
2023-01-28T23:33:12.318Z,29.15
2023-01-28T23:35:38.965Z,30.05
2023-01-28T23:38:05.686Z,28.77
2023-01-28T23:40:32.341Z,30.23
2023-01-28T23:42:58.928Z,26.23
2023-01-28T23:45:25.640Z,30.90
2023-01-28T23:47:52.604Z,32.03
2023-01-28T23:50:19.574Z,34.13
2023-01-28T23:52:46.221Z,29.02
2023-01-28T23:55:12.876Z,26.17
2023-01-28T23:57:39.504Z,26.67
